Time;durP1;ratioP1;P1;durP2;ratioP2;P2;SDS_P1;SDS_P2;PMS_P1;PMS_P2;Temp;Humidity;BMP_temperature;BMP_pressure;BME280_temperature;BME280_humidity;BME280_pressure;Samples;Min_cycle;Max_cycle;Signal;HPM_P1;HPM_P2
2023/11/10 00:00:12;;;;;;;8.25;7.03;;;;;;;3.64;66.98;93796.13;515362;28;928;-67
2023/11/10 00:00:28;;;;;;;10.20;7.97;;;;;;;3.64;67.18;93799.59;515502;28;785;-67
2023/11/10 00:00:44;;;;;;;12.20;8.38;;;;;;;3.65;67.09;93795.63;515326;28;825;-67
2023/11/10 00:01:00;;;;;;;11.60;8.48;;;;;;;3.65;67.45;93794.88;515603;28;786;-67
2023/11/10 00:01:16;;;;;;;11.27;8.80;;;;;;;3.65;67.12;93798.38;515135;28;837;-67
2023/11/10 00:01:31;;;;;;;10.60;8.50;;;;;;;3.66;67.44;93790.94;515405;28;1739;-67
2023/11/10 00:01:47;;;;;;;10.50;8.43;;;;;;;3.65;67.65;93803.84;515478;28;868;-66
2023/11/10 00:02:08;;;;;;;9.77;8.13;;;;;;;3.64;67.40;93796.13;515552;28;852;-67
2023/11/10 00:02:23;;;;;;;10.18;7.53;;;;;;;3.64;67.30;93796.88;515646;28;829;-67
2023/11/10 00:02:40;;;;;;;10.57;7.77;;;;;;;3.63;67.27;93797.38;515307;28;884;-66
2023/11/10 00:02:55;;;;;;;8.65;7.30;;;;;;;3.59;67.90;93797.63;515404;28;887;-67
2023/11/10 00:03:11;;;;;;;10.07;6.23;;;;;;;3.60;67.44;93792.88;515169;28;824;-67
2023/11/10 00:03:27;;;;;;;10.05;6.15;;;;;;;3.59;68.05;93794.91;515605;28;901;-67
2023/11/10 00:03:43;;;;;;;8.90;7.30;;;;;;;3.59;67.69;93794.16;515381;28;888;-67
2023/11/10 00:03:58;;;;;;;10.63;8.07;;;;;;;3.59;67.92;93792.16;515461;28;837;-67
2023/11/10 00:04:14;;;;;;;8.97;7.20;;;;;;;3.60;67.72;93795.63;515361;28;781;-67
2023/11/10 00:04:29;;;;;;;7.22;6.22;;;;;;;3.60;67.67;93798.34;515547;28;857;-67
2023/11/10 00:04:48;;;;;;;8.03;5.37;;;;;;;3.57;67.63;93791.88;515413;28;892;-67
2023/11/10 00:05:04;;;;;;;8.27;5.65;;;;;;;3.54;67.98;93794.88;515300;28;940;-66
2023/11/10 00:05:21;;;;;;;7.53;5.95;;;;;;;3.44;67.62;93778.00;515317;28;821;-67
2023/11/10 00:05:36;;;;;;;6.45;5.40;;;;;;;3.52;67.99;93789.91;515327;28;876;-67
2023/11/10 00:05:51;;;;;;;6.00;5.20;;;;;;;3.50;68.25;93792.41;515632;28;815;-67
2023/11/10 00:06:07;;;;;;;6.70;5.07;;;;;;;3.50;68.33;93795.13;515547;28;915;-67
2023/11/10 00:06:23;;;;;;;6.15;4.63;;;;;;;3.48;68.44;93788.66;515326;28;830;-67
2023/11/10 00:06:38;;;;;;;5.38;4.35;;;;;;;3.50;68.86;93794.38;515372;28;815;-67
2023/11/10 00:06:54;;;;;;;5.27;4.63;;;;;;;3.25;68.15;93754.41;515577;28;919;-67
2023/11/10 00:07:09;;;;;;;6.03;5.35;;;;;;;3.51;68.66;93788.41;515262;28;930;-67
2023/11/10 00:07:24;;;;;;;8.90;5.87;;;;;;;3.51;68.62;93798.63;515421;28;812;-67
2023/11/10 00:07:40;;;;;;;10.20;6.10;;;;;;;3.51;68.37;93804.06;515615;28;777;-67
2023/11/10 00:07:56;;;;;;;8.15;6.35;;;;;;;3.49;67.99;93796.34;514962;28;1068;-67
2023/11/10 00:08:13;;;;;;;6.82;5.82;;;;;;;3.49;68.76;93798.34;516858;28;1154;-67
2023/11/10 00:08:28;;;;;;;9.18;6.03;;;;;;;3.48;68.87;93800.34;517461;28;864;-67
2023/11/10 00:08:44;;;;;;;8.73;5.77;;;;;;;3.49;68.31;93801.81;517388;28;840;-67
2023/11/10 00:08:59;;;;;;;6.53;5.60;;;;;;;3.49;68.55;93801.81;517682;28;856;-67
2023/11/10 00:09:15;;;;;;;6.03;5.33;;;;;;;3.38;68.64;93782.69;517275;28;844;-68
2023/11/10 00:09:31;;;;;;;5.70;4.80;;;;;;;3.50;68.85;93803.31;517261;28;876;-67
2023/11/10 00:09:48;;;;;;;7.95;5.38;;;;;;;3.50;68.68;93803.31;517560;28;1766;-67
2023/11/10 00:10:04;;;;;;;11.43;6.22;;;;;;;3.50;69.19;93797.09;517567;28;824;-67
2023/11/10 00:10:21;;;;;;;10.88;6.38;;;;;;;3.50;68.62;93799.84;517506;28;1025;-67
2023/11/10 00:10:36;;;;;;;9.93;6.32;;;;;;;3.46;68.76;93794.63;517470;28;1031;-67
2023/11/10 00:10:53;;;;;;;9.23;6.53;;;;;;;3.44;69.38;93801.81;517354;28;928;-67
2023/11/10 00:11:08;;;;;;;9.82;6.55;;;;;;;3.41;69.59;93800.06;517453;28;956;-67
2023/11/10 00:11:26;;;;;;;9.27;6.50;;;;;;;3.39;70.23;93797.09;517425;28;841;-67
2023/11/10 00:11:41;;;;;;;7.97;6.68;;;;;;;3.38;70.57;93798.34;517329;28;918;-67
2023/11/10 00:11:57;;;;;;;7.40;6.47;;;;;;;3.37;70.16;93796.84;517560;28;821;-67
2023/11/10 00:12:14;;;;;;;7.78;6.25;;;;;;;3.39;69.97;93797.09;517642;28;843;-67
2023/11/10 00:12:29;;;;;;;7.38;5.75;;;;;;;3.38;69.90;93795.63;517439;28;918;-67
2023/11/10 00:12:45;;;;;;;5.57;4.63;;;;;;;3.39;69.80;93802.53;517336;28;777;-67
2023/11/10 00:13:00;;;;;;;6.05;4.65;;;;;;;3.38;69.38;93806.53;517404;28;781;-67
2023/11/10 00:13:15;;;;;;;6.10;5.10;;;;;;;3.37;69.73;93799.56;517480;28;848;-67
2023/11/10 00:13:31;;;;;;;5.53;4.90;;;;;;;3.37;69.73;93803.03;517488;28;1100;-67
2023/11/10 00:13:46;;;;;;;6.23;4.83;;;;;;;3.36;69.79;93800.78;517299;28;832;-67
2023/11/10 00:14:01;;;;;;;7.70;5.40;;;;;;;3.34;69.91;93803.28;517421;28;856;-67
2023/11/10 00:14:17;;;;;;;7.10;5.32;;;;;;;3.35;70.07;93797.34;517713;28;861;-67
2023/11/10 00:14:33;;;;;;;5.43;4.93;;;;;;;3.35;69.80;93796.59;517331;28;841;-67
2023/11/10 00:14:49;;;;;;;5.88;5.00;;;;;;;3.35;69.98;93796.59;517409;28;931;-67
2023/11/10 00:15:07;;;;;;;8.75;4.75;;;;;;;3.35;69.91;93799.31;517241;28;875;-67
2023/11/10 00:15:26;;;;;;;8.23;4.82;;;;;;;3.35;69.86;93793.84;517425;28;876;-67
2023/11/10 00:15:41;;;;;;;5.30;4.55;;;;;;;3.36;69.70;93795.34;517429;28;951;-67
2023/11/10 00:15:57;;;;;;;6.15;4.97;;;;;;;3.37;70.18;93797.59;517537;28;785;-67
2023/11/10 00:16:12;;;;;;;8.00;5.57;;;;;;;3.38;70.15;93792.88;517345;28;768;-67
2023/11/10 00:16:28;;;;;;;9.23;5.37;;;;;;;3.37;69.50;93797.59;517425;28;911;-67
2023/11/10 00:16:44;;;;;;;7.65;4.97;;;;;;;3.38;69.50;93790.88;517579;28;859;-67
2023/11/10 00:16:59;;;;;;;5.97;4.70;;;;;;;3.37;69.75;93797.59;517560;28;984;-67
2023/11/10 00:17:16;;;;;;;6.00;4.77;;;;;;;3.38;70.12;93795.63;517392;28;828;-67
2023/11/10 00:17:31;;;;;;;5.38;4.88;;;;;;;3.38;69.42;93792.88;517440;28;884;-67
2023/11/10 00:17:46;;;;;;;5.00;4.60;;;;;;;3.37;69.82;93786.69;517682;28;939;-67
2023/11/10 00:18:02;;;;;;;5.20;4.70;;;;;;;3.37;69.59;93785.91;517321;28;864;-67
2023/11/10 00:18:17;;;;;;;5.68;4.60;;;;;;;3.38;70.08;93790.16;517545;28;800;-67
2023/11/10 00:18:33;;;;;;;5.73;4.47;;;;;;;3.38;70.03;93795.63;517356;28;1009;-67
2023/11/10 00:18:49;;;;;;;4.93;4.30;;;;;;;3.37;69.80;93791.38;517635;28;875;-67
2023/11/10 00:19:07;;;;;;;4.53;3.95;;;;;;;3.32;69.82;93792.09;517402;28;900;-67
2023/11/10 00:19:22;;;;;;;4.53;4.13;;;;;;;3.34;70.18;93795.84;517268;28;871;-67
2023/11/10 00:19:39;;;;;;;5.07;4.47;;;;;;;3.36;69.82;93798.06;517540;28;856;-67
2023/11/10 00:19:54;;;;;;;5.85;4.45;;;;;;;3.36;70.24;93798.06;513268;28;1707;-67
2023/11/10 00:20:11;;;;;;;4.97;4.37;;;;;;;3.35;70.28;93800.06;513168;28;785;-67
2023/11/10 00:20:26;;;;;;;4.63;4.20;;;;;;;3.33;70.12;93801.78;513273;28;888;-67
2023/11/10 00:20:42;;;;;;;5.03;4.30;;;;;;;3.33;69.93;93796.34;513166;28;831;-67
2023/11/10 00:20:57;;;;;;;5.65;4.18;;;;;;;3.31;70.16;93791.38;513430;28;769;-67
2023/11/10 00:21:19;;;;;;;5.40;4.23;;;;;;;3.31;70.05;93802.28;512957;28;1910;-68
2023/11/10 00:21:36;;;;;;;4.68;4.20;;;;;;;3.31;70.50;93798.81;513410;28;1043;-67
2023/11/10 00:21:51;;;;;;;4.88;4.05;;;;;;;3.31;70.32;93798.81;516315;28;936;-67
2023/11/10 00:22:07;;;;;;;5.30;4.00;;;;;;;3.32;70.07;93801.03;517350;28;840;-67
2023/11/10 00:22:22;;;;;;;5.87;4.37;;;;;;;3.32;70.03;93798.31;517452;28;841;-67
2023/11/10 00:22:39;;;;;;;6.37;4.63;;;;;;;3.33;69.57;93802.53;517578;28;857;-67
2023/11/10 00:22:54;;;;;;;5.97;4.10;;;;;;;3.34;69.99;93800.53;517338;28;869;-67
2023/11/10 00:23:10;;;;;;;4.97;3.70;;;;;;;3.30;69.93;93797.31;517283;28;892;-67
2023/11/10 00:23:25;;;;;;;4.82;4.05;;;;;;;3.29;70.29;93793.09;517481;28;809;-66
2023/11/10 00:23:40;;;;;;;4.73;4.20;;;;;;;3.28;69.93;93799.78;517539;28;904;-67
2023/11/10 00:23:56;;;;;;;4.38;4.00;;;;;;;3.24;69.98;93793.84;517470;28;781;-67
2023/11/10 00:24:12;;;;;;;4.30;3.90;;;;;;;3.22;70.13;93791.59;517310;28;872;-67
2023/11/10 00:24:27;;;;;;;6.18;4.32;;;;;;;3.22;70.46;93793.59;517564;28;944;-67
2023/11/10 00:24:45;;;;;;;6.67;4.90;;;;;;;3.25;69.84;93795.34;517407;28;902;-67
2023/11/10 00:25:01;;;;;;;6.20;5.10;;;;;;;3.23;70.06;93787.63;517324;28;928;-67
2023/11/10 00:25:16;;;;;;;6.57;5.03;;;;;;;3.27;69.66;93793.59;517355;28;817;-67
2023/11/10 00:25:32;;;;;;;6.75;4.63;;;;;;;3.28;69.58;93792.34;517401;28;887;-67
2023/11/10 00:25:47;;;;;;;7.10;4.97;;;;;;;3.29;69.25;93793.84;517587;28;893;-67
2023/11/10 00:26:03;;;;;;;6.37;4.73;;;;;;;3.29;70.07;93791.09;517464;28;845;-67
2023/11/10 00:26:19;;;;;;;6.93;4.57;;;;;;;3.31;69.36;93796.09;517376;28;1061;-67
2023/11/10 00:26:36;;;;;;;5.93;4.88;;;;;;;3.31;69.37;93783.19;517369;28;873;-68
2023/11/10 00:26:52;;;;;;;6.32;5.18;;;;;;;3.34;69.19;93790.38;517676;28;1545;-67
2023/11/10 00:27:07;;;;;;;7.00;5.27;;;;;;;3.36;69.45;93792.59;517278;28;785;-67
2023/11/10 00:27:22;;;;;;;6.47;5.40;;;;;;;3.37;69.36;93788.66;517375;28;848;-67
2023/11/10 00:27:38;;;;;;;6.68;5.47;;;;;;;3.39;69.13;93791.63;517370;28;848;-68
2023/11/10 00:27:53;;;;;;;7.47;5.10;;;;;;;3.38;68.37;93787.44;517576;28;887;-67
2023/11/10 00:28:09;;;;;;;7.35;5.10;;;;;;;3.40;68.72;93790.41;517361;28;867;-67
2023/11/10 00:28:24;;;;;;;6.97;5.17;;;;;;;3.39;68.62;93784.19;517374;28;773;-67
2023/11/10 00:28:40;;;;;;;7.33;5.37;;;;;;;3.41;68.52;93783.69;517557;28;815;-67
2023/11/10 00:28:55;;;;;;;8.30;5.45;;;;;;;3.40;68.36;93782.22;517459;28;848;-67
2023/11/10 00:29:10;;;;;;;9.63;5.93;;;;;;;3.40;68.27;93790.41;517331;28;778;-67
2023/11/10 00:29:26;;;;;;;9.40;6.25;;;;;;;3.31;68.33;93775.00;517504;28;878;-67
2023/11/10 00:29:43;;;;;;;8.25;5.60;;;;;;;3.39;68.54;93786.16;517637;28;847;-67
2023/11/10 00:29:59;;;;;;;7.55;5.65;;;;;;;3.36;68.28;93781.69;517610;28;870;-67
2023/11/10 00:30:14;;;;;;;8.18;5.88;;;;;;;3.36;68.37;93784.41;517201;28;785;-67
2023/11/10 00:30:29;;;;;;;7.37;5.47;;;;;;;3.34;68.09;93789.63;517275;28;793;-68
2023/11/10 00:30:45;;;;;;;7.25;5.63;;;;;;;3.33;68.10;93782.69;517602;28;840;-67
2023/11/10 00:31:00;;;;;;;7.20;5.60;;;;;;;3.33;68.37;93788.16;517458;28;1065;-67
2023/11/10 00:31:18;;;;;;;8.43;5.78;;;;;;;3.33;68.14;93785.44;517240;28;880;-67
2023/11/10 00:31:33;;;;;;;8.40;5.72;;;;;;;3.33;68.04;93785.44;517478;28;895;-68
2023/11/10 00:31:49;;;;;;;7.50;5.30;;;;;;;3.21;67.98;93781.91;517567;28;789;-67
2023/11/10 00:32:04;;;;;;;8.17;4.90;;;;;;;3.19;67.73;93789.84;517557;28;857;-67
2023/11/10 00:32:20;;;;;;;6.88;4.97;;;;;;;3.20;68.43;93782.41;517341;28;841;-67
2023/11/10 00:32:37;;;;;;;7.03;5.20;;;;;;;3.21;68.80;93789.34;517329;28;766;-67
2023/11/10 00:32:52;;;;;;;6.38;4.78;;;;;;;3.22;68.63;93785.41;517533;28;938;-67
2023/11/10 00:33:08;;;;;;;8.85;4.78;;;;;;;3.23;68.39;93784.91;517473;28;888;-67
2023/11/10 00:33:24;;;;;;;9.63;5.13;;;;;;;3.11;68.26;93764.28;517331;28;852;-67
2023/11/10 00:33:39;;;;;;;7.28;5.18;;;;;;;3.27;67.83;93785.41;517413;28;1612;-67
2023/11/10 00:33:55;;;;;;;6.47;5.13;;;;;;;3.27;67.64;93781.94;517589;28;858;-67
2023/11/10 00:34:11;;;;;;;6.43;5.30;;;;;;;3.28;67.90;93784.16;517700;28;809;-67
2023/11/10 00:34:26;;;;;;;7.33;5.23;;;;;;;3.28;68.18;93786.16;517353;28;777;-67
2023/11/10 00:34:42;;;;;;;6.57;4.63;;;;;;;3.28;67.88;93780.69;517248;28;953;-67
2023/11/10 00:34:57;;;;;;;5.67;4.40;;;;;;;3.28;68.07;93786.91;517699;28;829;-67
2023/11/10 00:35:13;;;;;;;6.80;4.47;;;;;;;3.28;68.39;93784.16;517140;28;819;-67
2023/11/10 00:35:28;;;;;;;6.83;4.60;;;;;;;3.28;68.10;93783.41;517434;28;828;-67
2023/11/10 00:35:43;;;;;;;5.90;4.77;;;;;;;3.29;68.11;93774.72;517365;28;903;-67
2023/11/10 00:35:59;;;;;;;6.85;5.00;;;;;;;3.30;68.18;93783.66;517613;28;808;-67
2023/11/10 00:36:14;;;;;;;6.43;5.03;;;;;;;3.29;68.25;93785.66;517393;28;852;-67
2023/11/10 00:36:29;;;;;;;5.53;4.60;;;;;;;3.31;68.22;93777.00;517248;28;945;-67
2023/11/10 00:36:45;;;;;;;5.75;4.43;;;;;;;3.30;67.83;93784.41;517401;28;789;-67
2023/11/10 00:37:01;;;;;;;5.88;4.70;;;;;;;3.30;67.91;93778.22;517591;28;971;-67
2023/11/10 00:37:17;;;;;;;5.90;4.63;;;;;;;3.30;67.94;93778.97;517230;28;857;-67
2023/11/10 00:37:32;;;;;;;5.63;4.53;;;;;;;3.30;68.00;93783.66;517397;28;869;-67
2023/11/10 00:37:50;;;;;;;5.53;4.93;;;;;;;3.26;68.04;93778.47;517453;28;881;-67
2023/11/10 00:38:05;;;;;;;5.80;4.90;;;;;;;3.26;68.22;93783.91;515696;28;2435;-67
2023/11/10 00:38:20;;;;;;;5.93;4.70;;;;;;;3.27;68.51;93777.22;515330;28;876;-67
2023/11/10 00:38:36;;;;;;;5.20;4.50;;;;;;;3.27;68.63;93784.69;515257;28;860;-67
2023/11/10 00:38:51;;;;;;;5.10;4.40;;;;;;;3.25;68.26;93782.41;515173;28;896;-67
2023/11/10 00:39:06;;;;;;;5.27;4.57;;;;;;;3.28;68.35;93786.16;515594;28;849;-67
2023/11/10 00:39:22;;;;;;;6.25;5.05;;;;;;;3.27;68.65;93779.94;515387;28;790;-68
2023/11/10 00:39:38;;;;;;;7.67;5.37;;;;;;;3.29;68.73;93788.38;515484;28;813;-67
2023/11/10 00:39:57;;;;;;;7.47;5.30;;;;;;;3.29;68.08;93782.19;515374;28;845;-67
2023/11/10 00:40:13;;;;;;;7.93;6.38;;;;;;;3.29;68.58;93777.47;515448;28;931;-67
2023/11/10 00:40:30;;;;;;;10.17;7.80;;;;;;;3.30;68.49;93776.25;515327;28;785;-68
2023/11/10 00:40:46;;;;;;;10.73;8.00;;;;;;;3.32;68.23;93781.19;515239;28;948;-67
2023/11/10 00:41:01;;;;;;;11.10;7.87;;;;;;;3.32;68.65;93781.94;515332;28;777;-66
2023/11/10 00:41:19;;;;;;;9.73;6.95;;;;;;;3.32;67.83;93781.19;515421;28;790;-67
2023/11/10 00:41:34;;;;;;;10.55;6.40;;;;;;;3.32;68.23;93778.47;515601;28;880;-67
2023/11/10 00:41:49;;;;;;;9.77;6.30;;;;;;;3.32;68.17;93786.66;515358;28;801;-67
2023/11/10 00:42:05;;;;;;;8.33;6.17;;;;;;;3.33;67.90;93783.44;515333;28;825;-67
2023/11/10 00:42:20;;;;;;;8.43;6.27;;;;;;;3.32;68.16;93784.66;515445;28;778;-67
2023/11/10 00:42:36;;;;;;;7.00;5.88;;;;;;;3.32;68.70;93781.94;515613;28;853;-67
2023/11/10 00:42:51;;;;;;;5.80;5.00;;;;;;;3.30;68.56;93784.41;515062;28;781;-68
2023/11/10 00:43:07;;;;;;;5.65;4.90;;;;;;;3.29;68.07;93784.94;515261;28;877;-67
2023/11/10 00:43:22;;;;;;;6.03;5.03;;;;;;;3.29;68.03;93785.66;515400;28;955;-67
2023/11/10 00:43:38;;;;;;;7.93;4.97;;;;;;;3.29;68.66;93784.94;515508;28;829;-67
2023/11/10 00:43:53;;;;;;;7.57;5.27;;;;;;;3.27;67.98;93781.94;515139;28;1213;-67
2023/11/10 00:44:10;;;;;;;6.80;6.00;;;;;;;3.26;68.45;93786.66;515217;28;838;-67
2023/11/10 00:44:27;;;;;;;6.72;5.57;;;;;;;3.26;68.34;93783.16;515281;28;1296;-66
2023/11/10 00:44:42;;;;;;;5.65;4.47;;;;;;;3.24;68.12;93780.94;515283;28;857;-67
2023/11/10 00:44:57;;;;;;;5.47;4.37;;;;;;;3.23;68.67;93776.72;515117;28;837;-68
2023/11/10 00:45:13;;;;;;;6.10;4.55;;;;;;;3.25;68.29;93787.16;515121;28;884;-67
2023/11/10 00:45:28;;;;;;;6.27;4.57;;;;;;;3.26;68.74;93789.38;515323;28;1069;-68
2023/11/10 00:45:43;;;;;;;5.53;4.70;;;;;;;3.26;68.41;93789.38;515358;28;849;-67
2023/11/10 00:45:59;;;;;;;5.10;4.47;;;;;;;3.26;68.53;93786.66;515316;28;754;-67
2023/11/10 00:46:14;;;;;;;5.03;3.92;;;;;;;3.25;68.17;93778.97;515393;28;888;-67
2023/11/10 00:46:30;;;;;;;4.53;3.67;;;;;;;3.24;68.40;93782.91;515493;28;892;-67
2023/11/10 00:46:45;;;;;;;3.50;3.20;;;;;;;3.23;68.30;93784.91;515395;28;817;-67
2023/11/10 00:47:00;;;;;;;3.63;3.08;;;;;;;3.01;68.39;93746.69;515405;28;805;-67
2023/11/10 00:47:16;;;;;;;4.93;3.47;;;;;;;3.25;68.13;93781.69;515315;28;829;-67
2023/11/10 00:47:31;;;;;;;4.83;3.67;;;;;;;3.27;67.89;93781.94;515849;28;991;-67
2023/11/10 00:47:46;;;;;;;4.43;3.97;;;;;;;3.27;68.12;93779.94;515763;28;889;-67
2023/11/10 00:48:02;;;;;;;5.10;4.00;;;;;;;3.23;68.05;93779.44;515636;28;828;-67
2023/11/10 00:48:18;;;;;;;5.03;3.80;;;;;;;3.22;67.62;93782.66;515705;28;734;-67
2023/11/10 00:48:33;;;;;;;4.68;3.72;;;;;;;2.98;67.66;93753.84;515864;28;848;-67
2023/11/10 00:48:49;;;;;;;5.43;3.83;;;;;;;3.08;67.87;93757.09;515715;28;825;-67
2023/11/10 00:49:04;;;;;;;6.73;3.83;;;;;;;3.18;67.39;93777.47;515670;28;746;-67
2023/11/10 00:49:20;;;;;;;6.07;3.58;;;;;;;3.14;67.92;93768.75;515701;28;823;-67
2023/11/10 00:49:35;;;;;;;4.33;3.53;;;;;;;3.17;67.89;93783.41;515902;28;1166;-67
2023/11/10 00:49:50;;;;;;;4.37;3.53;;;;;;;3.17;67.83;93777.94;515723;28;857;-67
2023/11/10 00:50:06;;;;;;;4.78;3.42;;;;;;;3.17;68.11;93775.22;515761;28;786;-67
2023/11/10 00:50:21;;;;;;;4.57;3.38;;;;;;;3.17;68.17;93777.94;515808;28;927;-67
2023/11/10 00:50:37;;;;;;;5.47;3.33;;;;;;;3.17;68.41;93778.69;515854;28;849;-67
2023/11/10 00:50:52;;;;;;;6.13;3.53;;;;;;;3.18;68.02;93782.16;515717;28;836;-67
2023/11/10 00:51:07;;;;;;;5.05;3.58;;;;;;;3.19;67.67;93783.66;515568;28;939;-67
2023/11/10 00:51:23;;;;;;;4.80;3.40;;;;;;;3.16;67.96;93785.41;515860;28;844;-67
2023/11/10 00:51:38;;;;;;;4.53;3.50;;;;;;;3.14;67.93;93779.66;515813;28;922;-67
2023/11/10 00:51:54;;;;;;;5.82;3.90;;;;;;;3.16;67.82;93779.19;515658;28;837;-67
2023/11/10 00:52:10;;;;;;;6.03;4.00;;;;;;;3.14;67.94;93779.66;515739;28;947;-67
2023/11/10 00:52:25;;;;;;;5.20;3.85;;;;;;;3.13;67.81;93774.72;515823;28;894;-67
2023/11/10 00:52:41;;;;;;;5.18;3.70;;;;;;;3.12;67.90;93778.69;515550;28;911;-67
2023/11/10 00:52:56;;;;;;;5.57;3.60;;;;;;;3.12;67.77;93781.41;515784;28;816;-67
2023/11/10 00:53:11;;;;;;;6.23;3.80;;;;;;;3.14;67.54;93784.41;515555;28;898;-67
2023/11/10 00:53:27;;;;;;;6.05;3.90;;;;;;;3.14;68.41;93778.94;515955;28;908;-67
2023/11/10 00:53:42;;;;;;;5.60;3.80;;;;;;;3.14;67.71;93782.41;515700;28;860;-67
2023/11/10 00:53:59;;;;;;;5.10;3.50;;;;;;;3.16;67.98;93784.66;513536;28;1334;-67
2023/11/10 00:54:18;;;;;;;4.78;3.58;;;;;;;3.17;67.91;93786.13;513564;28;833;-67
2023/11/10 00:54:33;;;;;;;4.82;3.63;;;;;;;3.16;67.64;93788.13;513717;28;821;-67
2023/11/10 00:54:49;;;;;;;5.32;3.85;;;;;;;3.17;67.90;93786.88;513563;28;841;-67
2023/11/10 00:55:06;;;;;;;6.13;4.40;;;;;;;3.17;68.55;93784.16;513389;28;821;-67
2023/11/10 00:55:21;;;;;;;5.82;4.10;;;;;;;3.18;67.86;93785.66;513201;28;970;-67
2023/11/10 00:55:37;;;;;;;5.30;3.95;;;;;;;3.19;67.98;93787.13;513895;28;850;-67
2023/11/10 00:55:55;;;;;;;5.13;3.90;;;;;;;3.19;67.62;93778.94;514880;28;770;-67
2023/11/10 00:56:11;;;;;;;5.20;3.90;;;;;;;3.21;67.95;93786.63;515579;28;920;-67
2023/11/10 00:56:26;;;;;;;6.63;4.13;;;;;;;3.21;67.79;93790.09;515702;28;821;-67
2023/11/10 00:56:42;;;;;;;7.72;4.53;;;;;;;3.21;67.98;93781.16;515538;28;1550;-67
2023/11/10 00:56:58;;;;;;;6.75;4.97;;;;;;;3.22;67.66;93779.94;515968;28;810;-67
2023/11/10 00:57:14;;;;;;;6.23;4.80;;;;;;;3.22;67.51;93785.41;515489;28;790;-67
2023/11/10 00:57:29;;;;;;;5.03;4.50;;;;;;;3.23;67.37;93786.91;515791;28;984;-67
2023/11/10 00:57:44;;;;;;;5.75;4.43;;;;;;;3.23;67.56;93784.19;515749;28;789;-67
2023/11/10 00:58:00;;;;;;;6.70;4.60;;;;;;;3.22;67.44;93785.41;515833;28;837;-67
2023/11/10 00:58:15;;;;;;;7.15;5.07;;;;;;;3.19;67.03;93786.38;515693;28;793;-67
2023/11/10 00:58:31;;;;;;;6.13;5.00;;;;;;;3.10;67.47;93786.63;515624;28;769;-67
2023/11/10 00:58:46;;;;;;;5.93;4.80;;;;;;;3.07;67.92;93789.06;515870;28;821;-67
2023/11/10 00:59:02;;;;;;;7.30;5.23;;;;;;;3.07;68.27;93786.34;515878;28;857;-67
2023/11/10 00:59:17;;;;;;;7.63;5.50;;;;;;;3.09;67.80;93785.88;515698;28;1062;-67
2023/11/10 00:59:32;;;;;;;6.97;5.57;;;;;;;3.09;67.82;93788.59;515539;28;1349;-67
2023/11/10 00:59:48;;;;;;;9.47;6.43;;;;;;;3.12;68.22;93786.88;515945;28;828;-67
2023/11/10 01:00:04;;;;;;;9.30;6.30;;;;;;;2.87;67.61;93748.38;515820;28;737;-67
2023/11/10 01:00:19;;;;;;;7.28;6.00;;;;;;;3.12;67.83;93784.88;515797;28;813;-67
2023/11/10 01:00:34;;;;;;;7.70;5.85;;;;;;;3.14;67.83;93787.13;515691;28;911;-67
2023/11/10 01:00:50;;;;;;;9.83;6.27;;;;;;;3.15;67.86;93788.59;515802;28;804;-67
2023/11/10 01:01:07;;;;;;;14.50;7.30;;;;;;;3.15;67.54;93783.16;515666;28;1934;-67
2023/11/10 01:01:23;;;;;;;12.55;7.72;;;;;;;3.16;67.82;93787.38;515673;28;990;-67
2023/11/10 01:01:38;;;;;;;10.43;7.83;;;;;;;3.16;67.90;93790.09;515692;28;1019;-67
2023/11/10 01:01:54;;;;;;;10.55;7.82;;;;;;;3.16;67.17;93790.84;515843;28;844;-67
2023/11/10 01:02:09;;;;;;;9.38;7.57;;;;;;;3.16;67.36;93782.66;515662;28;821;-67
2023/11/10 01:02:25;;;;;;;10.13;7.17;;;;;;;3.17;67.35;93784.16;515621;28;840;-67
2023/11/10 01:02:40;;;;;;;11.13;6.97;;;;;;;3.17;67.78;93792.34;515740;28;809;-67
2023/11/10 01:02:56;;;;;;;10.65;6.75;;;;;;;3.17;67.64;93786.13;515937;28;899;-67
2023/11/10 01:03:11;;;;;;;9.70;6.43;;;;;;;3.19;67.20;93789.09;515529;28;861;-67
2023/11/10 01:03:26;;;;;;;9.85;6.72;;;;;;;3.17;67.16;93786.13;515768;28;852;-67
2023/11/10 01:03:42;;;;;;;10.23;6.70;;;;;;;3.20;67.40;93783.16;515574;28;758;-67
2023/11/10 01:03:58;;;;;;;8.77;6.35;;;;;;;3.18;67.36;93780.19;515930;28;1018;-67
2023/11/10 01:04:14;;;;;;;8.75;6.30;;;;;;;3.20;67.29;93790.59;515745;28;871;-67
2023/11/10 01:04:29;;;;;;;9.30;6.45;;;;;;;3.20;67.01;93790.59;515619;28;966;-67
2023/11/10 01:04:45;;;;;;;8.77;6.40;;;;;;;3.20;67.61;93785.91;515637;28;840;-67
2023/11/10 01:05:00;;;;;;;8.35;6.50;;;;;;;3.19;67.34;93787.13;515951;28;781;-67
2023/11/10 01:05:19;;;;;;;7.90;6.87;;;;;;;3.21;67.75;93778.44;515566;28;749;-67
2023/11/10 01:05:35;;;;;;;9.32;6.57;;;;;;;3.20;67.22;93785.91;515719;28;815;-67
2023/11/10 01:05:50;;;;;;;10.43;6.20;;;;;;;3.20;67.63;93782.41;515634;28;846;-67
2023/11/10 01:06:05;;;;;;;10.82;6.55;;;;;;;3.19;67.52;93787.13;515965;28;831;-67
2023/11/10 01:06:22;;;;;;;9.27;6.30;;;;;;;3.20;68.00;93791.34;515597;28;769;-67
2023/11/10 01:06:37;;;;;;;9.27;6.00;;;;;;;3.18;67.63;93782.16;515727;28;916;-67
2023/11/10 01:06:52;;;;;;;10.05;6.07;;;;;;;3.17;67.73;93788.84;515629;28;772;-67
2023/11/10 01:07:08;;;;;;;7.33;6.00;;;;;;;3.13;67.63;93785.63;515900;28;1043;-67
2023/11/10 01:07:23;;;;;;;7.00;5.97;;;;;;;3.08;68.02;93782.38;515693;28;828;-67
2023/11/10 01:07:39;;;;;;;7.87;5.83;;;;;;;3.02;67.96;93776.19;515747;28;848;-67
2023/11/10 01:07:54;;;;;;;8.93;5.95;;;;;;;3.06;67.75;93781.38;514981;28;1199;-67
2023/11/10 01:08:10;;;;;;;8.40;5.60;;;;;;;3.06;67.92;93789.56;517192;28;1107;-67
2023/11/10 01:08:25;;;;;;;8.23;5.65;;;;;;;3.05;67.97;93783.38;517724;28;832;-67
2023/11/10 01:08:40;;;;;;;8.83;5.70;;;;;;;3.05;67.82;93788.81;517683;28;817;-67
2023/11/10 01:08:59;;;;;;;8.10;5.50;;;;;;;3.05;68.27;93777.91;517751;28;891;-67
2023/11/10 01:09:14;;;;;;;7.45;5.55;;;;;;;3.06;68.22;93784.88;517752;28;867;-67
2023/11/10 01:09:30;;;;;;;8.67;5.77;;;;;;;3.07;68.33;93791.06;517770;28;840;-67
2023/11/10 01:09:45;;;;;;;8.07;5.45;;;;;;;3.06;68.34;93787.59;517723;28;871;-67
2023/11/10 01:10:01;;;;;;;7.50;5.30;;;;;;;3.06;67.90;93786.84;517760;28;769;-67
2023/11/10 01:10:16;;;;;;;7.55;5.35;;;;;;;3.06;68.28;93795.78;517905;28;796;-67
2023/11/10 01:10:36;;;;;;;8.03;5.47;;;;;;;3.04;67.67;93781.88;517594;28;820;-67
2023/11/10 01:10:51;;;;;;;6.68;5.57;;;;;;;3.04;67.96;93792.81;517729;28;922;-67
2023/11/10 01:11:07;;;;;;;7.60;5.73;;;;;;;3.04;68.18;93797.50;517696;28;830;-67
2023/11/10 01:11:24;;;;;;;7.63;5.72;;;;;;;3.04;67.99;93787.34;517753;28;910;-67
2023/11/10 01:11:39;;;;;;;6.90;5.75;;;;;;;3.01;68.59;93791.03;517947;28;829;-67
2023/11/10 01:11:55;;;;;;;8.17;6.43;;;;;;;3.02;68.27;93791.78;517622;28;816;-67
2023/11/10 01:12:10;;;;;;;9.10;6.40;;;;;;;3.00;68.30;93792.28;517668;28;943;-67
2023/11/10 01:12:26;;;;;;;8.93;6.47;;;;;;;3.00;68.38;93797.75;517794;28;899;-67
2023/11/10 01:12:44;;;;;;;9.13;6.72;;;;;;;2.94;68.30;93786.09;517888;28;788;-67
2023/11/10 01:13:00;;;;;;;8.45;6.57;;;;;;;3.01;68.50;93793.06;517684;28;836;-67
2023/11/10 01:13:15;;;;;;;9.57;7.45;;;;;;;3.01;68.55;93793.06;517568;28;875;-67
2023/11/10 01:13:32;;;;;;;10.60;7.20;;;;;;;3.00;68.63;93802.44;517836;28;840;-67
2023/11/10 01:13:47;;;;;;;8.50;5.70;;;;;;;2.98;68.84;93800.22;518033;28;801;-67
2023/11/10 01:14:04;;;;;;;6.40;5.07;;;;;;;2.98;68.33;93802.19;517780;28;825;-67
2023/11/10 01:14:21;;;;;;;6.90;4.68;;;;;;;2.98;68.45;93789.31;517700;28;938;-67
2023/11/10 01:14:36;;;;;;;6.70;4.53;;;;;;;3.00;68.35;93791.53;517693;28;844;-67
2023/11/10 01:14:51;;;;;;;7.23;4.77;;;;;;;2.86;68.26;93779.59;517868;28;769;-67
2023/11/10 01:15:08;;;;;;;9.00;5.67;;;;;;;3.00;68.18;93797.75;517691;28;1184;-67
2023/11/10 01:15:24;;;;;;;9.63;6.70;;;;;;;3.02;68.11;93800.72;517689;28;870;-67
2023/11/10 01:15:40;;;;;;;8.23;6.05;;;;;;;3.03;68.06;93798.75;517689;28;801;-67
2023/11/10 01:15:56;;;;;;;5.03;4.40;;;;;;;3.01;67.81;93796.50;517821;28;899;-67
2023/11/10 01:16:12;;;;;;;4.70;3.60;;;;;;;3.01;68.05;93793.78;517648;28;844;-67
2023/11/10 01:16:28;;;;;;;5.00;3.70;;;;;;;3.01;67.73;93791.03;517215;28;1240;-67
2023/11/10 01:16:44;;;;;;;4.50;3.75;;;;;;;3.01;67.93;93799.22;513422;28;841;-67
2023/11/10 01:16:59;;;;;;;5.00;4.00;;;;;;;3.00;67.61;93795.03;512539;28;1306;-67
2023/11/10 01:17:15;;;;;;;5.40;4.67;;;;;;;2.99;68.24;93798.97;511623;29;802;-67
2023/11/10 01:17:31;;;;;;;4.72;4.25;;;;;;;2.98;68.20;93797.50;511472;29;856;-67
2023/11/10 01:17:47;;;;;;;4.90;3.40;;;;;;;2.98;68.22;93799.47;511636;29;916;-67
2023/11/10 01:18:02;;;;;;;6.30;3.75;;;;;;;2.98;67.81;93802.19;511550;29;817;-67